Time;durP1;ratioP1;P1;durP2;ratioP2;P2;SDS_P1;SDS_P2;PMS_P1;PMS_P2;Temp;Humidity;BMP_temperature;BMP_pressure;BME280_temperature;BME280_humidity;BME280_pressure;Samples;Min_cycle;Max_cycle;Signal;HPM_P1;HPM_P2
2022/05/30 00:01:38;;;;;;;6.17;4.90;;;;;;;10.91;80.55;98042.13;1583541;90;25810;-63
2022/05/30 00:04:04;;;;;;;6.20;4.80;;;;;;;10.99;80.66;98035.55;1583462;90;26662;-63
2022/05/30 00:06:30;;;;;;;6.75;4.72;;;;;;;10.96;80.31;98037.59;1583460;90;25516;-63
2022/05/30 00:08:57;;;;;;;6.12;4.70;;;;;;;10.94;80.46;98045.36;1592581;89;27443;-63
2022/05/30 00:11:23;;;;;;;7.05;4.80;;;;;;;10.95;80.16;98045.58;1602418;89;26110;-63
2022/05/30 00:13:49;;;;;;;7.37;4.83;;;;;;;10.99;79.75;98043.78;1629856;87;25630;-63
2022/05/30 00:16:19;;;;;;;6.95;5.25;;;;;;;11.01;80.18;98044.26;1618075;88;25819;-63
2022/05/30 00:18:45;;;;;;;7.45;4.92;;;;;;;10.93;79.98;98040.43;1659753;86;25694;-63
2022/05/30 00:21:12;;;;;;;9.28;5.08;;;;;;;10.94;80.61;98036.55;1659704;86;28468;-64
2022/05/30 00:23:40;;;;;;;8.48;5.17;;;;;;;10.86;80.32;98036.86;1655058;85;25881;-62
2022/05/30 00:26:08;;;;;;;8.25;5.30;;;;;;;10.84;80.79;98036.38;1650224;86;25755;-62
2022/05/30 00:28:36;;;;;;;6.58;5.25;;;;;;;10.85;80.59;98034.45;1650239;87;25672;-63
2022/05/30 00:31:03;;;;;;;6.90;4.90;;;;;;;10.88;80.59;98031.05;1650406;86;25637;-63
2022/05/30 00:33:30;;;;;;;7.55;5.30;;;;;;;10.92;80.68;98029.23;1650361;87;26881;-63
2022/05/30 00:35:56;;;;;;;7.67;4.92;;;;;;;10.95;80.72;98025.84;1650198;87;25915;-63
2022/05/30 00:38:22;;;;;;;6.75;5.25;;;;;;;10.97;80.64;98027.66;1650380;87;25483;-63
2022/05/30 00:40:48;;;;;;;5.83;4.22;;;;;;;10.98;80.83;98029.28;1650333;86;26499;-63
2022/05/30 00:43:28;;;;;;;7.45;5.35;;;;;;;10.95;80.70;98023.09;1650412;86;25792;-63
2022/05/30 00:45:58;;;;;;;6.15;4.90;;;;;;;10.93;80.60;98019.87;1649936;87;27529;-63
2022/05/30 00:48:32;;;;;;;6.77;5.13;;;;;;;10.89;80.62;98020.30;1650448;86;25948;-63
2022/05/30 00:51:06;;;;;;;7.30;5.67;;;;;;;10.84;80.96;98016.38;1633344;87;25536;-62
2022/05/30 00:53:34;;;;;;;7.92;5.33;;;;;;;10.77;81.01;98017.70;1650359;86;25681;-63
2022/05/30 00:56:04;;;;;;;6.20;5.60;;;;;;;10.76;81.20;98005.70;1649996;87;25463;-64
2022/05/30 00:58:34;;;;;;;6.67;5.50;;;;;;;10.78;81.08;98009.73;1650709;86;27506;-63
2022/05/30 01:01:02;;;;;;;5.60;5.03;;;;;;;10.81;80.87;98007.44;1650394;86;35025;-64
2022/05/30 01:06:32;;;;;;;5.85;4.72;;;;;;;10.83;81.05;98010.11;1650010;87;25653;-64
2022/05/30 01:09:04;;;;;;;7.22;5.20;;;;;;;10.75;80.71;98002.17;1650128;87;25463;-63
2022/05/30 01:11:56;;;;;;;6.50;4.92;;;;;;;10.71;81.51;97999.05;1649176;86;27397;-63
2022/05/30 01:14:29;;;;;;;5.78;4.80;;;;;;;10.66;81.45;97997.30;1650402;86;25475;-63
2022/05/30 01:16:57;;;;;;;6.58;5.42;;;;;;;10.66;81.61;97999.48;1650308;86;25629;-63
2022/05/30 01:20:07;;;;;;;5.92;4.78;;;;;;;10.72;81.55;97998.72;1650253;86;25746;-64
2022/05/30 01:23:04;;;;;;;5.62;4.37;;;;;;;10.65;81.43;97988.86;1650222;87;25611;-63
2022/05/30 01:25:45;;;;;;;6.72;4.65;;;;;;;10.64;81.36;97995.45;1649832;86;27551;-64
2022/05/30 01:28:45;;;;;;;6.50;4.90;;;;;;;10.56;81.36;97987.51;1650441;86;25635;-64
2022/05/30 01:31:13;;;;;;;6.25;4.60;;;;;;;10.54;81.36;97980.20;1650096;86;25703;-63
2022/05/30 01:33:39;;;;;;;7.30;5.00;;;;;;;10.62;81.84;97984.03;1650243;86;25802;-64
2022/05/30 01:36:06;;;;;;;8.23;5.60;;;;;;;10.70;81.99;97984.53;1646846;86;26611;-64
2022/05/30 01:38:33;;;;;;;6.10;4.70;;;;;;;10.73;81.78;97980.32;1650296;86;27397;-64
2022/05/30 01:41:03;;;;;;;6.22;4.62;;;;;;;10.72;81.48;97985.02;1650084;86;25708;-64
2022/05/30 01:43:27;;;;;;;6.45;4.33;;;;;;;10.70;81.64;97985.91;1648674;86;25650;-64
2022/05/30 01:45:53;;;;;;;6.25;4.72;;;;;;;10.71;81.45;97983.39;1650215;86;26547;-64
2022/05/30 01:48:20;;;;;;;5.10;4.42;;;;;;;10.61;81.56;97990.07;1650285;86;25695;-64
2022/05/30 01:50:47;;;;;;;7.40;5.20;;;;;;;10.61;81.69;97983.78;1650027;86;28236;-64
2022/05/30 01:53:14;;;;;;;5.28;4.40;;;;;;;10.63;81.91;97983.70;1650021;87;25628;-64
2022/05/30 01:55:40;;;;;;;6.80;4.58;;;;;;;10.58;81.71;97983.88;1650258;86;25463;-63
2022/05/30 01:58:06;;;;;;;6.25;4.70;;;;;;;10.52;81.57;97978.34;1650537;86;25729;-63
2022/05/30 02:00:34;;;;;;;5.65;4.70;;;;;;;10.49;81.81;97981.75;1650380;86;25661;-62
2022/05/30 02:03:01;;;;;;;6.08;4.55;;;;;;;10.51;82.27;97976.75;1650008;87;28382;-63
2022/05/30 02:05:30;;;;;;;5.97;4.50;;;;;;;10.50;81.59;97977.86;1650074;87;26016;-63
2022/05/30 02:07:56;;;;;;;4.78;4.05;;;;;;;10.50;81.97;97980.05;1649841;86;25792;-63
2022/05/30 02:10:22;;;;;;;5.92;4.28;;;;;;;10.49;81.46;97975.71;1650259;86;26562;-63
2022/05/30 02:12:48;;;;;;;5.75;4.33;;;;;;;10.46;81.69;97978.30;1650556;87;25479;-63
2022/05/30 02:15:14;;;;;;;6.72;4.83;;;;;;;10.49;81.67;97972.97;1650237;86;28210;-63
2022/05/30 02:17:40;;;;;;;5.78;4.67;;;;;;;10.56;82.12;97972.44;1650219;87;25616;-63
2022/05/30 02:20:09;;;;;;;6.25;5.05;;;;;;;10.58;81.77;97976.22;1650210;86;25435;-63
2022/05/30 02:22:34;;;;;;;5.12;4.58;;;;;;;10.59;81.75;97974.52;1650207;87;25688;-62
2022/05/30 02:25:00;;;;;;;5.33;4.12;;;;;;;10.60;81.54;97972.59;1654028;86;25703;-63
2022/05/30 02:27:26;;;;;;;5.10;4.47;;;;;;;10.53;81.29;97973.09;1655616;86;28234;-64
2022/05/30 02:29:52;;;;;;;5.10;4.42;;;;;;;10.51;81.15;97973.42;1647128;86;25459;-61
2022/05/30 02:32:20;;;;;;;6.05;4.12;;;;;;;10.50;81.40;97971.02;1644032;87;25633;-63
2022/05/30 02:37:31;;;;;;;5.42;4.00;;;;;;;10.60;82.00;97971.22;1643812;87;25463;-64
2022/05/30 02:39:58;;;;;;;4.47;3.65;;;;;;;10.57;81.13;97963.11;1643763;87;27348;-63
2022/05/30 02:42:24;;;;;;;4.72;3.50;;;;;;;10.57;81.15;97965.84;1644374;86;25618;-63
2022/05/30 02:44:50;;;;;;;5.47;4.20;;;;;;;10.47;80.88;97963.46;1643842;87;25646;-63
2022/05/30 02:47:19;;;;;;;4.28;3.87;;;;;;;10.36;81.22;97962.44;1643892;87;25708;-63
2022/05/30 02:49:45;;;;;;;4.08;3.67;;;;;;;10.24;81.44;97965.06;1643969;86;25444;-63
2022/05/30 02:52:11;;;;;;;4.58;3.92;;;;;;;10.21;81.49;97966.53;1644126;87;27494;-63
2022/05/30 02:54:38;;;;;;;5.22;3.50;;;;;;;10.21;81.86;97967.91;1643995;87;25847;-63
2022/05/30 02:57:05;;;;;;;5.22;3.52;;;;;;;10.17;81.70;97963.64;1643940;87;25709;-63
2022/05/30 02:59:31;;;;;;;3.87;3.40;;;;;;;10.10;81.67;97975.67;1644154;87;25886;-63
2022/05/30 03:01:57;;;;;;;4.72;3.50;;;;;;;10.00;81.66;97963.16;1643827;87;25642;-63
2022/05/30 03:04:23;;;;;;;4.20;3.25;;;;;;;10.06;82.08;97970.62;1644236;86;27438;-63
2022/05/30 03:06:49;;;;;;;4.90;2.90;;;;;;;10.01;81.96;97973.52;1628769;87;25598;-63
2022/05/30 03:09:17;;;;;;;3.80;2.85;;;;;;;10.08;82.28;97971.66;1644118;86;25479;-63
2022/05/30 03:11:43;;;;;;;4.20;3.25;;;;;;;10.05;81.78;97981.34;1643935;87;25846;-63
2022/05/30 03:14:09;;;;;;;4.40;2.85;;;;;;;10.10;81.97;97978.99;1644116;87;25645;-63
2022/05/30 03:16:35;;;;;;;3.65;3.00;;;;;;;10.10;82.00;97978.41;1644134;86;27490;-63
2022/05/30 03:19:00;;;;;;;3.50;3.20;;;;;;;10.16;81.87;97978.47;1644016;86;25622;-63
2022/05/30 03:21:26;;;;;;;3.75;3.42;;;;;;;10.14;81.94;97981.31;1641458;86;26529;-59
2022/05/30 03:23:53;;;;;;;4.42;3.17;;;;;;;10.22;82.10;97985.93;1644277;86;26464;-63
2022/05/30 03:26:20;;;;;;;4.15;3.08;;;;;;;10.26;81.76;97988.27;1657435;86;25592;-62
2022/05/30 03:28:46;;;;;;;5.53;3.30;;;;;;;10.28;82.08;97983.84;1659526;86;27504;-62
2022/05/30 03:31:12;;;;;;;3.90;2.87;;;;;;;10.32;82.03;97984.78;1659658;86;25907;-63
2022/05/30 03:33:40;;;;;;;4.95;3.17;;;;;;;10.33;81.88;97986.96;1659606;86;25620;-63
2022/05/30 03:36:27;;;;;;;3.83;3.40;;;;;;;10.40;81.80;97988.03;1659307;86;25738;-62
2022/05/30 03:38:54;;;;;;;4.75;3.55;;;;;;;10.44;81.78;97984.62;1659422;86;25458;-62
2022/05/30 03:41:20;;;;;;;4.55;3.52;;;;;;;10.37;81.63;97987.90;1659429;86;29578;-62
2022/05/30 03:43:46;;;;;;;4.17;3.02;;;;;;;10.39;81.81;97979.58;1659616;86;25628;-63
2022/05/30 03:46:12;;;;;;;3.37;2.98;;;;;;;10.34;81.74;97986.63;1659740;86;25470;-62
2022/05/30 03:48:38;;;;;;;4.00;3.15;;;;;;;10.35;81.75;97987.41;1659837;86;25754;-62
2022/05/30 03:51:12;;;;;;;4.70;3.15;;;;;;;10.25;81.92;97983.13;1659351;86;25660;-62
2022/05/30 03:53:36;;;;;;;4.53;3.30;;;;;;;10.24;82.34;97993.81;1659218;86;25907;-62
2022/05/30 03:56:03;;;;;;;4.42;3.15;;;;;;;10.26;82.25;97997.05;1659650;86;25451;-62
2022/05/30 03:58:35;;;;;;;4.20;2.83;;;;;;;10.32;82.34;98001.77;1659804;86;25633;-61
2022/05/30 04:01:10;;;;;;;3.22;2.72;;;;;;;10.34;82.38;98004.44;1659616;86;26741;-62
2022/05/30 04:03:37;;;;;;;5.10;2.85;;;;;;;10.40;82.11;98005.83;1659853;86;25517;-62
2022/05/30 04:06:04;;;;;;;3.80;2.62;;;;;;;10.40;82.13;97996.25;1659639;86;27608;-63
2022/05/30 04:08:30;;;;;;;5.47;2.87;;;;;;;10.44;82.45;97999.14;1659492;86;25677;-61
2022/05/30 04:10:57;;;;;;;4.17;2.83;;;;;;;10.42;82.15;97996.73;1659306;86;25463;-62
2022/05/30 04:13:24;;;;;;;3.50;2.65;;;;;;;10.44;82.05;97989.55;1659709;86;25776;-62
2022/05/30 04:15:50;;;;;;;4.12;2.98;;;;;;;10.42;81.86;97994.55;1659785;86;25604;-60
2022/05/30 04:18:16;;;;;;;3.15;2.83;;;;;;;10.40;82.30;97988.03;1659752;86;26853;-61
2022/05/30 04:20:46;;;;;;;4.28;3.02;;;;;;;10.34;82.41;97987.19;1659631;86;25887;-62
2022/05/30 04:23:14;;;;;;;3.67;2.80;;;;;;;10.34;82.72;97989.37;1659568;86;25442;-62
2022/05/30 04:25:40;;;;;;;4.30;3.58;;;;;;;10.38;82.78;97990.31;1656189;86;26271;-62
2022/05/30 04:28:06;;;;;;;3.98;2.87;;;;;;;10.36;82.19;97996.67;1644604;86;25465;-62
2022/05/30 04:30:32;;;;;;;3.35;2.50;;;;;;;10.44;82.18;97998.33;1644141;86;27386;-62
2022/05/30 04:33:04;;;;;;;3.45;2.75;;;;;;;10.46;81.92;98005.69;1643921;87;25653;-62
2022/05/30 04:35:30;;;;;;;3.72;2.85;;;;;;;10.52;82.18;98001.08;1643871;86;25448;-62
2022/05/30 04:37:56;;;;;;;4.72;2.75;;;;;;;10.54;82.12;98000.75;1643958;86;25961;-62
2022/05/30 04:40:21;;;;;;;2.65;2.20;;;;;;;10.56;81.91;98001.20;1643824;87;25470;-62
2022/05/30 04:42:47;;;;;;;3.75;2.50;;;;;;;10.59;81.92;98004.66;1643698;87;27506;-61
2022/05/30 04:45:15;;;;;;;6.40;2.60;;;;;;;10.64;82.15;97999.56;1643691;87;25677;-61
2022/05/30 04:47:42;;;;;;;3.58;2.83;;;;;;;10.74;82.21;98001.13;1643945;86;25621;-60
2022/05/30 04:50:13;;;;;;;4.55;3.08;;;;;;;10.82;82.71;97994.00;1644071;86;25719;-61
2022/05/30 04:52:41;;;;;;;5.53;3.10;;;;;;;11.00;82.95;97993.31;1644049;86;25808;-60
2022/05/30 04:55:09;;;;;;;4.85;2.77;;;;;;;11.20;82.99;97999.92;1643584;86;27513;-61
2022/05/30 04:57:45;;;;;;;3.10;2.77;;;;;;;11.26;82.67;97999.95;1642837;86;25732;-58
2022/05/30 05:00:15;;;;;;;3.75;2.60;;;;;;;11.38;83.18;97999.80;1648920;86;25704;-60
2022/05/30 05:02:42;;;;;;;4.22;2.37;;;;;;;11.46;82.41;97991.27;1653246;86;25895;-60
2022/05/30 05:05:10;;;;;;;3.25;2.50;;;;;;;11.54;81.02;97991.74;1652956;86;25730;-60
2022/05/30 05:07:47;;;;;;;5.47;2.52;;;;;;;11.50;80.60;97998.49;1652661;86;27367;-60
2022/05/30 05:10:55;;;;;;;2.67;2.12;;;;;;;11.42;80.10;97996.61;1652637;85;25542;-60
2022/05/30 05:13:22;;;;;;;3.50;2.50;;;;;;;11.35;81.04;98007.33;1652500;86;25443;-60
2022/05/30 05:15:48;;;;;;;3.58;2.72;;;;;;;11.57;81.81;98008.12;1652542;85;25731;-60
2022/05/30 05:18:15;;;;;;;2.90;2.50;;;;;;;11.74;81.62;98005.77;1652460;86;25423;-60
2022/05/30 05:20:42;;;;;;;4.65;3.00;;;;;;;11.92;81.51;98000.34;1652741;86;27380;-59
2022/05/30 05:23:11;;;;;;;5.33;2.60;;;;;;;12.18;82.84;98002.63;1652611;86;25776;-59
2022/05/30 05:25:40;;;;;;;3.90;2.50;;;;;;;12.34;79.81;97993.12;1656760;86;25855;-60
2022/05/30 05:28:07;;;;;;;4.35;2.20;;;;;;;12.44;80.47;97999.32;1654090;85;25718;-60
2022/05/30 05:30:34;;;;;;;3.27;2.47;;;;;;;12.39;77.44;97992.11;1652484;86;25694;-59
2022/05/30 05:33:01;;;;;;;2.98;2.50;;;;;;;12.25;77.90;98000.67;1652950;86;26922;-61
2022/05/30 05:35:27;;;;;;;3.45;2.58;;;;;;;12.39;79.43;98001.16;1652639;86;25685;-60
2022/05/30 05:37:56;;;;;;;4.40;2.72;;;;;;;12.58;78.63;98002.52;1652665;85;25631;-61
2022/05/30 05:40:23;;;;;;;4.78;3.22;;;;;;;12.79;78.60;98008.48;1652417;86;25768;-61
2022/05/30 05:42:50;;;;;;;3.58;2.60;;;;;;;12.95;77.64;98003.07;1652648;86;25658;-61
2022/05/30 05:45:17;;;;;;;5.58;3.62;;;;;;;12.90;77.61;98005.48;1652697;85;27759;-61
2022/05/30 05:47:44;;;;;;;2.55;2.30;;;;;;;13.02;78.47;98006.63;1652316;86;25449;-62
2022/05/30 05:50:10;;;;;;;2.90;2.27;;;;;;;13.13;77.94;98008.33;1652471;86;25611;-62
2022/05/30 05:52:38;;;;;;;3.42;2.40;;;;;;;13.38;78.77;98009.63;1652660;86;25839;-61
2022/05/30 05:55:06;;;;;;;2.50;1.87;;;;;;;13.62;77.71;98007.98;1652633;86;25609;-61
2022/05/30 05:57:32;;;;;;;3.17;2.00;;;;;;;13.72;74.45;98015.73;1652649;86;27539;-61
2022/05/30 05:59:59;;;;;;;3.98;2.20;;;;;;;13.76;74.31;98015.25;1652338;85;25657;-61
2022/05/30 06:02:27;;;;;;;4.08;2.30;;;;;;;13.84;74.00;98013.50;1648913;85;25504;-59
2022/05/30 06:04:54;;;;;;;3.22;2.08;;;;;;;13.77;74.29;98021.57;1652573;86;25741;-61
2022/05/30 06:07:21;;;;;;;2.58;2.10;;;;;;;13.78;73.99;98014.34;1652631;86;25363;-62
2022/05/30 06:09:48;;;;;;;3.90;2.12;;;;;;;13.87;74.47;98018.30;1652407;86;27461;-62
2022/05/30 06:12:15;;;;;;;2.05;1.80;;;;;;;13.91;73.18;98021.17;1652523;86;25465;-58
2022/05/30 06:14:41;;;;;;;2.12;1.70;;;;;;;13.78;71.82;98021.79;1652551;86;25472;-58
2022/05/30 06:17:08;;;;;;;1.55;1.45;;;;;;;13.54;72.74;98031.19;1652308;86;25755;-61
2022/05/30 06:19:34;;;;;;;3.22;1.70;;;;;;;13.54;72.74;98031.19;1652535;86;25446;-57
2022/05/30 06:22:01;;;;;;;2.60;1.90;;;;;;;13.52;73.05;98026.59;1652652;86;27386;-60
2022/05/30 06:24:28;;;;;;;1.80;1.70;;;;;;;13.63;73.76;98032.42;1652544;85;25605;-57
2022/05/30 06:26:54;;;;;;;4.33;2.10;;;;;;;13.77;73.87;98032.02;1656708;86;25553;-61
2022/05/30 06:29:21;;;;;;;2.27;1.80;;;;;;;14.05;70.63;98029.02;1628272;87;25908;-59
2022/05/30 06:31:48;;;;;;;1.92;1.57;;;;;;;14.24;70.06;98033.84;1629051;87;25446;-59
2022/05/30 06:34:14;;;;;;;2.95;1.75;;;;;;;14.45;71.80;98033.38;1629295;87;27566;-57
2022/05/30 06:36:42;;;;;;;2.15;1.50;;;;;;;14.57;70.81;98038.80;1629206;87;25466;-60
2022/05/30 06:39:10;;;;;;;1.92;1.30;;;;;;;14.52;69.33;98044.00;1629072;87;25702;-60
2022/05/30 06:41:37;;;;;;;3.72;1.30;;;;;;;14.50;69.26;98037.22;1629053;88;25811;-58
2022/05/30 06:44:07;;;;;;;1.70;1.42;;;;;;;14.52;70.15;98042.63;1629415;87;25448;-60
2022/05/30 06:46:36;;;;;;;2.87;1.60;;;;;;;14.63;69.90;98037.95;1629307;88;27861;-59
2022/05/30 06:49:05;;;;;;;1.42;1.17;;;;;;;14.93;69.27;98037.50;1629199;88;25503;-57
2022/05/30 06:51:37;;;;;;;1.95;1.47;;;;;;;15.23;67.85;98038.36;1629373;88;25507;-58
2022/05/30 06:54:06;;;;;;;2.80;1.67;;;;;;;15.42;66.83;98040.94;1629051;88;26404;-57
2022/05/30 06:56:37;;;;;;;2.58;1.47;;;;;;;15.37;66.00;98045.38;1628946;87;25653;-58
2022/05/30 06:59:05;;;;;;;2.70;1.40;;;;;;;15.24;67.75;98049.64;1628889;87;27442;-57
2022/05/30 07:01:34;;;;;;;1.80;1.37;;;;;;;15.12;67.47;98048.38;1629100;87;25631;-62
2022/05/30 07:04:00;;;;;;;1.75;1.40;;;;;;;15.01;66.72;98052.27;1629349;87;25682;-57
2022/05/30 07:06:31;;;;;;;2.45;1.70;;;;;;;14.85;66.05;98060.57;1626165;88;27796;-57
2022/05/30 07:08:59;;;;;;;2.67;1.70;;;;;;;14.57;66.82;98055.34;1629120;88;25479;-58
2022/05/30 07:11:25;;;;;;;2.00;1.80;;;;;;;14.57;66.82;98055.34;1629189;87;27523;-57
2022/05/30 07:13:52;;;;;;;1.77;1.50;;;;;;;14.63;67.47;98053.11;1629292;87;25493;-57
2022/05/30 07:16:21;;;;;;;2.67;1.65;;;;;;;14.66;66.48;98050.45;1629238;88;25657;-57
2022/05/30 07:18:47;;;;;;;3.65;2.12;;;;;;;14.83;65.26;98060.12;1629154;87;25799;-57
2022/05/30 07:21:15;;;;;;;2.45;1.80;;;;;;;14.83;65.26;98060.12;1629556;88;25491;-58
2022/05/30 07:23:42;;;;;;;2.67;1.55;;;;;;;14.77;66.54;98063.70;1629424;87;28031;-60
2022/05/30 07:26:16;;;;;;;2.40;1.77;;;;;;;14.78;65.48;98060.62;1631602;87;25803;-58
2022/05/30 07:28:43;;;;;;;2.85;1.60;;;;;;;14.72;65.69;98068.09;1634175;87;25645;-58
2022/05/30 07:31:14;;;;;;;4.40;2.00;;;;;;;14.66;65.90;98063.44;1634248;87;26378;-58
2022/05/30 07:33:44;;;;;;;2.05;1.85;;;;;;;14.61;66.67;98064.50;1634471;87;25446;-57
2022/05/30 07:36:15;;;;;;;2.30;1.80;;;;;;;14.60;65.95;98067.61;1634275;87;27973;-58
2022/05/30 07:38:42;;;;;;;1.82;1.70;;;;;;;14.52;66.80;98070.20;1633856;87;25957;-60
2022/05/30 07:41:09;;;;;;;3.02;2.08;;;;;;;14.58;66.44;98064.40;1634051;87;25472;-57
2022/05/30 07:43:39;;;;;;;3.27;1.87;;;;;;;14.65;66.21;98072.27;1634232;87;26495;-57
2022/05/30 07:46:10;;;;;;;5.42;1.90;;;;;;;14.68;66.57;98070.75;1634124;87;31372;-57
2022/05/30 07:48:37;;;;;;;3.12;2.00;;;;;;;14.76;66.91;98080.82;1634418;87;27460;-57
2022/05/30 07:51:06;;;;;;;4.08;2.00;;;;;;;14.80;66.44;98077.59;1633800;87;26521;-58
2022/05/30 07:53:34;;;;;;;3.95;2.20;;;;;;;14.82;65.77;98081.37;1634241;87;25707;-58
2022/05/30 07:56:06;;;;;;;2.87;2.00;;;;;;;14.80;66.88;98086.47;1633860;87;25856;-60
2022/05/30 07:58:33;;;;;;;3.00;2.10;;;;;;;14.80;66.88;98086.47;1634202;87;25668;-58
2022/05/30 08:01:00;;;;;;;2.67;2.10;;;;;;;14.88;66.06;98092.36;1621375;87;27486;-59
2022/05/30 08:03:27;;;;;;;3.00;1.87;;;;;;;14.99;65.96;98089.06;1639949;87;25632;-59
2022/05/30 08:06:07;;;;;;;3.08;1.70;;;;;;;15.13;66.46;98096.31;1632620;87;25803;-57
2022/05/30 08:08:34;;;;;;;3.12;1.70;;;;;;;15.12;65.69;98093.34;1637216;86;26191;-58
2022/05/30 08:11:01;;;;;;;2.80;1.70;;;;;;;15.23;65.00;98098.30;1634082;87;25427;-58
2022/05/30 08:13:27;;;;;;;2.60;1.72;;;;;;;15.34;63.79;98094.41;1634142;87;27511;-58
2022/05/30 08:15:54;;;;;;;2.30;1.70;;;;;;;15.40;63.77;98106.78;1633765;87;25459;-58
2022/05/30 08:18:21;;;;;;;2.60;1.50;;;;;;;15.49;63.71;98103.81;1634011;87;25325;-61
2022/05/30 08:20:48;;;;;;;1.80;1.70;;;;;;;15.43;62.50;98108.81;1633830;87;25743;-57
2022/05/30 08:23:15;;;;;;;2.70;1.60;;;;;;;15.47;64.59;98105.55;1633901;87;25675;-57
2022/05/30 08:25:43;;;;;;;2.42;1.65;;;;;;;15.54;63.93;98097.41;1633985;87;27426;-57
2022/05/30 08:28:10;;;;;;;2.17;1.42;;;;;;;15.75;63.82;98110.67;1633857;87;25542;-57
2022/05/30 08:30:37;;;;;;;2.70;1.90;;;;;;;15.96;62.90;98108.13;1636367;87;25772;-57
2022/05/30 08:33:16;;;;;;;3.22;2.00;;;;;;;16.09;62.58;98110.98;1633880;87;25884;-57
2022/05/30 08:35:48;;;;;;;3.22;2.00;;;;;;;16.50;62.71;98112.55;1636583;87;25801;-58
2022/05/30 08:38:13;;;;;;;3.87;1.95;;;;;;;17.02;61.71;98116.39;1633365;87;25948;-58
2022/05/30 08:43:37;;;;;;;2.30;1.97;;;;;;;17.42;60.30;98119.80;1634184;87;25522;-57
2022/05/30 08:46:30;;;;;;;2.45;1.75;;;;;;;17.52;59.49;98115.56;1634223;87;25755;-57
2022/05/30 08:49:21;;;;;;;2.92;1.87;;;;;;;17.45;57.78;98119.63;1644508;87;25443;-60
2022/05/30 08:52:09;;;;;;;2.15;1.70;;;;;;;17.30;58.55;98129.12;1633579;87;26843;-59
2022/05/30 08:55:03;;;;;;;2.85;1.82;;;;;;;17.36;59.46;98125.44;1632823;87;25861;-59
2022/05/30 08:58:01;;;;;;;7.00;2.00;;;;;;;17.60;58.81;98116.47;1633888;87;25637;-59
2022/05/30 09:00:45;;;;;;;3.75;2.60;;;;;;;17.99;59.07;98119.55;1633767;87;25779;-59
2022/05/30 09:03:37;;;;;;;3.50;2.25;;;;;;;18.20;56.23;98121.81;1634059;87;25450;-58
2022/05/30 09:06:27;;;;;;;3.20;2.20;;;;;;;18.08;56.94;98122.84;1635348;87;27533;-58
2022/05/30 09:09:00;;;;;;;5.72;2.37;;;;;;;18.13;58.19;98126.67;1643802;87;25613;-59
2022/05/30 09:11:44;;;;;;;2.72;2.20;;;;;;;18.16;57.71;98124.53;1635704;87;25649;-58
2022/05/30 09:14:35;;;;;;;3.50;2.55;;;;;;;18.08;56.75;98125.61;1634145;87;25846;-58
2022/05/30 09:17:06;;;;;;;3.05;2.62;;;;;;;18.09;56.92;98122.23;1638843;87;25669;-58
2022/05/30 09:19:33;;;;;;;4.20;3.10;;;;;;;18.39;57.25;98132.53;1643883;87;27465;-58
2022/05/30 09:22:01;;;;;;;3.27;2.98;;;;;;;18.54;56.00;98127.31;1637620;87;25728;-59
2022/05/30 09:24:33;;;;;;;3.33;2.60;;;;;;;19.01;57.37;98130.31;1634118;87;25514;-59
2022/05/30 09:27:02;;;;;;;2.75;2.45;;;;;;;19.29;53.96;98129.77;1633907;87;25722;-60
2022/05/30 09:29:52;;;;;;;3.58;2.42;;;;;;;19.20;52.34;98129.91;1636701;87;25684;-58
2022/05/30 09:32:48;;;;;;;3.05;2.40;;;;;;;19.05;54.39;98131.13;1636695;87;27513;-59
2022/05/30 09:35:29;;;;;;;4.03;2.50;;;;;;;18.98;53.45;98135.25;1643768;86;25672;-58
2022/05/30 09:38:09;;;;;;;5.05;3.08;;;;;;;18.83;54.16;98139.88;1637058;87;25652;-58
2022/05/30 09:40:48;;;;;;;4.00;2.60;;;;;;;18.81;54.48;98137.48;1627953;87;44727;-61
2022/05/30 09:43:28;;;;;;;4.53;2.65;;;;;;;18.74;54.54;98147.92;1636527;87;25171;-60
2022/05/30 09:45:56;;;;;;;2.55;2.20;;;;;;;18.71;54.06;98149.29;1639113;86;27373;-60
2022/05/30 09:48:24;;;;;;;2.92;2.25;;;;;;;18.39;53.15;98151.33;1623456;87;25708;-59
2022/05/30 09:50:54;;;;;;;2.80;2.40;;;;;;;18.10;52.79;98148.20;1638772;86;25514;-59
2022/05/30 09:53:43;;;;;;;3.30;2.50;;;;;;;17.95;54.72;98156.92;1639044;87;27393;-58
2022/05/30 09:56:17;;;;;;;4.05;2.35;;;;;;;17.80;54.44;98156.75;1638534;87;25483;-58
2022/05/30 09:59:07;;;;;;;2.45;2.00;;;;;;;17.49;54.49;98166.17;1636883;87;27355;-58
2022/05/30 10:01:36;;;;;;;4.57;2.27;;;;;;;17.49;54.63;98157.86;1636782;87;25823;-59
2022/05/30 10:04:35;;;;;;;3.15;2.30;;;;;;;17.48;54.23;98155.70;1627429;87;25708;-58
2022/05/30 10:07:21;;;;;;;2.65;2.30;;;;;;;17.81;54.84;98163.07;1632620;87;26297;-58
2022/05/30 10:10:06;;;;;;;3.77;2.40;;;;;;;18.17;53.79;98153.84;1636666;87;25533;-59
2022/05/30 10:12:39;;;;;;;3.35;2.20;;;;;;;18.19;54.26;98157.63;1625443;88;27457;-60
2022/05/30 10:15:39;;;;;;;4.33;2.80;;;;;;;18.41;54.77;98157.89;1641028;87;25489;-59
2022/05/30 10:18:17;;;;;;;3.20;2.72;;;;;;;18.54;52.64;98157.83;1641174;87;25498;-59
2022/05/30 10:21:14;;;;;;;3.17;2.27;;;;;;;18.85;54.24;98153.58;1641052;87;25813;-60
2022/05/30 10:30:56;;;;;;;3.45;2.60;;;;;;;20.63;48.61;98147.47;1593364;89;25590;-58
2022/05/30 10:33:46;;;;;;;3.62;2.52;;;;;;;20.55;47.54;98147.46;1611904;88;25704;-59
2022/05/30 10:36:26;;;;;;;3.00;2.50;;;;;;;20.21;47.91;98149.16;1605901;89;26303;-58
2022/05/30 10:39:01;;;;;;;;;;;;;;;19.94;48.93;98156.35;1610352;89;25567;-60
2022/05/30 10:41:50;;;;;;;3.72;2.80;;;;;;;19.61;49.02;98153.99;1607253;89;28885;-63
2022/05/30 10:44:28;;;;;;;3.30;2.72;;;;;;;19.10;50.43;98157.78;1607653;89;25670;-58
2022/05/30 10:47:25;;;;;;;2.80;2.47;;;;;;;18.79;51.10;98163.43;1607461;89;25534;-59
2022/05/30 10:50:09;;;;;;;2.62;2.10;;;;;;;18.35;52.09;98158.83;1620120;88;26422;-58
2022/05/30 10:53:00;;;;;;;2.98;1.85;;;;;;;17.69;54.90;98173.80;1618529;88;25706;-59
2022/05/30 10:55:36;;;;;;;2.65;2.15;;;;;;;17.20;55.68;98174.03;1621194;88;27466;-59
2022/05/30 10:58:10;;;;;;;2.10;1.90;;;;;;;16.66;56.97;98171.32;1621000;88;25679;-59
2022/05/30 11:00:50;;;;;;;4.78;1.75;;;;;;;16.40;59.23;98178.34;1623199;87;25482;-58
2022/05/30 11:03:30;;;;;;;2.30;2.10;;;;;;;16.21;61.16;98168.67;1612889;88;25783;-60
2022/05/30 11:06:09;;;;;;;2.80;2.20;;;;;;;16.20;61.02;98177.55;1627637;87;25692;-58
2022/05/30 11:08:43;;;;;;;3.00;2.70;;;;;;;16.30;61.44;98186.63;1625260;88;27556;-57
2022/05/30 11:11:21;;;;;;;4.05;2.80;;;;;;;16.23;62.16;98183.73;1618548;88;25895;-58
2022/05/30 11:13:59;;;;;;;3.42;2.90;;;;;;;16.34;61.93;98175.66;1623776;88;25552;-60
2022/05/30 11:17:05;;;;;;;2.58;2.37;;;;;;;16.60;61.07;98169.21;1597806;88;26731;-57
2022/05/30 11:19:52;;;;;;;6.55;2.90;;;;;;;16.82;60.05;98167.66;1621358;88;25472;-57
2022/05/30 11:22:29;;;;;;;4.10;2.92;;;;;;;17.50;60.99;98167.19;1629474;88;28098;-59
2022/05/30 11:24:57;;;;;;;3.70;2.83;;;;;;;17.90;57.99;98166.94;1629597;88;25902;-57
2022/05/30 11:27:41;;;;;;;3.42;2.85;;;;;;;17.90;55.34;98166.36;1627353;88;25465;-58
2022/05/30 11:30:40;;;;;;;3.37;3.08;;;;;;;18.06;57.84;98166.19;1623680;88;25792;-57
2022/05/30 11:33:31;;;;;;;3.65;2.98;;;;;;;18.67;54.54;98156.18;1624673;88;25448;-61
2022/05/30 11:36:12;;;;;;;3.98;2.80;;;;;;;19.01;54.91;98156.11;1624551;88;27402;-59
2022/05/30 11:38:53;;;;;;;3.37;2.95;;;;;;;19.73;53.33;98162.02;1624904;88;25637;-59
2022/05/30 11:41:45;;;;;;;3.40;3.10;;;;;;;20.01;49.07;98156.99;1623873;88;25676;-58
2022/05/30 11:44:35;;;;;;;3.47;2.90;;;;;;;20.21;50.52;98156.13;1624242;88;25614;-58
2022/05/30 11:47:42;;;;;;;3.98;3.37;;;;;;;20.54;49.78;98155.62;1622560;88;25481;-59
2022/05/30 11:50:26;;;;;;;3.95;3.12;;;;;;;20.65;46.88;98152.86;1621719;88;28753;-58
2022/05/30 11:53:13;;;;;;;5.40;4.17;;;;;;;21.27;47.56;98147.34;1621441;88;25451;-61
2022/05/30 11:55:54;;;;;;;3.60;3.10;;;;;;;21.91;47.73;98146.87;1617687;88;25616;-58
2022/05/30 11:58:45;;;;;;;3.35;3.05;;;;;;;22.47;44.51;98143.42;1621700;88;25797;-58
2022/05/30 12:01:13;;;;;;;4.35;2.85;;;;;;;22.09;46.26;98145.41;1621015;88;25494;-58
2022/05/30 12:03:54;;;;;;;5.03;3.25;;;;;;;22.51;44.35;98148.37;1621734;88;27427;-58
2022/05/30 12:06:59;;;;;;;3.70;2.90;;;;;;;22.79;45.16;98147.23;1621399;88;25427;-58
2022/05/30 12:09:45;;;;;;;4.10;3.35;;;;;;;22.74;44.71;98138.69;1621710;88;25609;-58
2022/05/30 12:12:44;;;;;;;3.85;3.25;;;;;;;23.16;43.72;98137.39;1621565;88;25688;-58
2022/05/30 12:15:35;;;;;;;3.37;3.08;;;;;;;23.41;42.16;98138.39;1621892;88;25240;-59